sensor_id;sensor_type;location;lat;lon;timestamp;pressure;altitude;pressure_sealevel;temperature;humidity
53960;BME280;39866;48.638;-2.020;2024-01-06T00:00:39;100883.53;;;12.25;100.00
53960;BME280;39866;48.638;-2.020;2024-01-06T00:03:04;100892.44;;;11.96;100.00
53960;BME280;39866;48.638;-2.020;2024-01-06T00:05:30;100884.13;;;12.06;100.00
53960;BME280;39866;48.638;-2.020;2024-01-06T00:07:55;100891.00;;;11.85;100.00
53960;BME280;39866;48.638;-2.020;2024-01-06T00:10:20;100874.34;;;12.33;100.00
53960;BME280;39866;48.638;-2.020;2024-01-06T00:12:49;100886.31;;;12.20;100.00
53960;BME280;39866;48.638;-2.020;2024-01-06T00:15:14;100888.03;;;12.49;100.00
53960;BME280;39866;48.638;-2.020;2024-01-06T00:17:39;100877.19;;;12.54;100.00
53960;BME280;39866;48.638;-2.020;2024-01-06T00:20:05;100892.97;;;12.61;100.00
53960;BME280;39866;48.638;-2.020;2024-01-06T00:22:31;100884.16;;;12.58;100.00
53960;BME280;39866;48.638;-2.020;2024-01-06T00:24:56;100888.50;;;12.60;100.00
53960;BME280;39866;48.638;-2.020;2024-01-06T00:27:22;100879.09;;;12.75;100.00
53960;BME280;39866;48.638;-2.020;2024-01-06T00:29:47;100875.06;;;12.88;100.00
53960;BME280;39866;48.638;-2.020;2024-01-06T00:32:12;100883.66;;;12.97;100.00
53960;BME280;39866;48.638;-2.020;2024-01-06T00:34:38;100882.69;;;12.99;100.00
53960;BME280;39866;48.638;-2.020;2024-01-06T00:37:03;100902.22;;;12.76;100.00
53960;BME280;39866;48.638;-2.020;2024-01-06T00:39:28;100909.41;;;12.49;100.00
53960;BME280;39866;48.638;-2.020;2024-01-06T00:41:54;100920.78;;;12.00;100.00
53960;BME280;39866;48.638;-2.020;2024-01-06T00:44:19;100920.72;;;11.42;100.00
53960;BME280;39866;48.638;-2.020;2024-01-06T00:46:45;100919.41;;;11.27;100.00
53960;BME280;39866;48.638;-2.020;2024-01-06T00:49:10;100924.47;;;11.36;100.00
53960;BME280;39866;48.638;-2.020;2024-01-06T00:51:36;100934.41;;;11.61;100.00
53960;BME280;39866;48.638;-2.020;2024-01-06T00:54:01;100925.69;;;11.85;100.00
53960;BME280;39866;48.638;-2.020;2024-01-06T00:56:26;100927.13;;;11.66;100.00
53960;BME280;39866;48.638;-2.020;2024-01-06T00:58:52;100927.34;;;11.60;100.00
53960;BME280;39866;48.638;-2.020;2024-01-06T01:01:18;100932.31;;;11.72;100.00
53960;BME280;39866;48.638;-2.020;2024-01-06T01:03:43;100935.25;;;11.93;100.00
53960;BME280;39866;48.638;-2.020;2024-01-06T01:06:09;100927.91;;;12.01;100.00
53960;BME280;39866;48.638;-2.020;2024-01-06T01:08:34;100926.03;;;12.31;100.00
53960;BME280;39866;48.638;-2.020;2024-01-06T01:10:59;100936.97;;;12.50;100.00
53960;BME280;39866;48.638;-2.020;2024-01-06T01:13:25;100929.25;;;12.67;100.00
53960;BME280;39866;48.638;-2.020;2024-01-06T01:15:50;100939.59;;;12.51;100.00
53960;BME280;39866;48.638;-2.020;2024-01-06T01:18:16;100935.13;;;12.25;100.00
53960;BME280;39866;48.638;-2.020;2024-01-06T01:20:41;100935.13;;;12.25;100.00
53960;BME280;39866;48.638;-2.020;2024-01-06T01:23:07;100934.09;;;12.29;100.00
53960;BME280;39866;48.638;-2.020;2024-01-06T01:25:35;100931.66;;;12.48;100.00
53960;BME280;39866;48.638;-2.020;2024-01-06T01:28:00;100930.88;;;12.45;100.00
53960;BME280;39866;48.638;-2.020;2024-01-06T01:30:27;100936.94;;;12.23;100.00
53960;BME280;39866;48.638;-2.020;2024-01-06T01:32:52;100942.81;;;12.34;100.00
53960;BME280;39866;48.638;-2.020;2024-01-06T01:35:18;100934.75;;;12.62;100.00
53960;BME280;39866;48.638;-2.020;2024-01-06T01:37:43;100948.72;;;12.16;100.00
53960;BME280;39866;48.638;-2.020;2024-01-06T01:40:09;100944.16;;;12.21;100.00
53960;BME280;39866;48.638;-2.020;2024-01-06T01:42:37;100943.13;;;11.97;100.00
53960;BME280;39866;48.638;-2.020;2024-01-06T01:45:04;100951.91;;;12.01;100.00
53960;BME280;39866;48.638;-2.020;2024-01-06T01:47:29;100952.69;;;12.04;100.00
53960;BME280;39866;48.638;-2.020;2024-01-06T01:49:55;100962.19;;;11.83;100.00
53960;BME280;39866;48.638;-2.020;2024-01-06T01:52:21;100967.84;;;12.02;100.00
53960;BME280;39866;48.638;-2.020;2024-01-06T01:54:47;100971.09;;;12.12;100.00
53960;BME280;39866;48.638;-2.020;2024-01-06T01:57:14;100972.91;;;12.39;100.00
53960;BME280;39866;48.638;-2.020;2024-01-06T01:59:41;100978.72;;;12.52;100.00
53960;BME280;39866;48.638;-2.020;2024-01-06T02:02:08;100980.09;;;12.37;100.00
53960;BME280;39866;48.638;-2.020;2024-01-06T02:04:34;100989.13;;;11.74;100.00
53960;BME280;39866;48.638;-2.020;2024-01-06T02:06:59;100992.50;;;11.50;100.00
53960;BME280;39866;48.638;-2.020;2024-01-06T02:09:25;100988.69;;;11.27;100.00
53960;BME280;39866;48.638;-2.020;2024-01-06T02:11:54;100996.78;;;11.24;100.00
53960;BME280;39866;48.638;-2.020;2024-01-06T02:14:19;101010.97;;;11.25;100.00
53960;BME280;39866;48.638;-2.020;2024-01-06T02:16:44;101018.16;;;11.23;100.00
53960;BME280;39866;48.638;-2.020;2024-01-06T02:19:11;101015.63;;;11.16;100.00
53960;BME280;39866;48.638;-2.020;2024-01-06T02:21:41;100999.25;;;11.30;100.00
53960;BME280;39866;48.638;-2.020;2024-01-06T02:24:07;101007.25;;;11.30;100.00
53960;BME280;39866;48.638;-2.020;2024-01-06T02:26:32;101004.97;;;11.49;100.00
53960;BME280;39866;48.638;-2.020;2024-01-06T02:28:58;101009.00;;;11.64;100.00
53960;BME280;39866;48.638;-2.020;2024-01-06T02:31:23;101009.59;;;11.74;100.00
53960;BME280;39866;48.638;-2.020;2024-01-06T02:33:48;101014.75;;;11.80;100.00
53960;BME280;39866;48.638;-2.020;2024-01-06T02:36:14;101013.78;;;11.82;100.00
53960;BME280;39866;48.638;-2.020;2024-01-06T02:38:39;101006.28;;;11.97;100.00
53960;BME280;39866;48.638;-2.020;2024-01-06T02:41:04;101017.63;;;12.03;100.00
53960;BME280;39866;48.638;-2.020;2024-01-06T02:43:30;101017.75;;;12.00;100.00
53960;BME280;39866;48.638;-2.020;2024-01-06T02:45:55;101021.72;;;12.15;100.00
53960;BME280;39866;48.638;-2.020;2024-01-06T02:48:20;101035.72;;;12.23;100.00
53960;BME280;39866;48.638;-2.020;2024-01-06T02:50:46;101030.00;;;12.35;100.00
53960;BME280;39866;48.638;-2.020;2024-01-06T02:53:11;101038.06;;;12.34;100.00
53960;BME280;39866;48.638;-2.020;2024-01-06T02:55:46;101037.97;;;12.37;100.00
53960;BME280;39866;48.638;-2.020;2024-01-06T02:58:11;101036.06;;;12.40;100.00
53960;BME280;39866;48.638;-2.020;2024-01-06T03:00:39;101046.66;;;12.44;100.00
53960;BME280;39866;48.638;-2.020;2024-01-06T03:03:05;101039.63;;;12.41;100.00
53960;BME280;39866;48.638;-2.020;2024-01-06T03:05:30;101047.50;;;12.46;100.00
53960;BME280;39866;48.638;-2.020;2024-01-06T03:07:56;101055.44;;;12.47;100.00
53960;BME280;39866;48.638;-2.020;2024-01-06T03:10:21;101063.38;;;12.49;100.00
53960;BME280;39866;48.638;-2.020;2024-01-06T03:12:47;101074.97;;;12.49;100.00
53960;BME280;39866;48.638;-2.020;2024-01-06T03:15:12;101068.22;;;12.37;100.00
53960;BME280;39866;48.638;-2.020;2024-01-06T03:17:37;101088.47;;;12.15;100.00
53960;BME280;39866;48.638;-2.020;2024-01-06T03:20:03;101077.94;;;11.45;100.00
53960;BME280;39866;48.638;-2.020;2024-01-06T03:22:29;101075.81;;;11.25;100.00
53960;BME280;39866;48.638;-2.020;2024-01-06T03:24:54;101075.00;;;11.56;100.00
53960;BME280;39866;48.638;-2.020;2024-01-06T03:27:20;101074.22;;;11.51;100.00
53960;BME280;39866;48.638;-2.020;2024-01-06T03:29:45;101080.22;;;11.60;100.00
53960;BME280;39866;48.638;-2.020;2024-01-06T03:32:10;101078.22;;;11.69;100.00
53960;BME280;39866;48.638;-2.020;2024-01-06T03:34:36;101083.34;;;11.75;100.00
53960;BME280;39866;48.638;-2.020;2024-01-06T03:37:04;101080.41;;;11.53;100.00
53960;BME280;39866;48.638;-2.020;2024-01-06T03:39:30;101069.91;;;11.47;100.00
53960;BME280;39866;48.638;-2.020;2024-01-06T03:41:55;101072.22;;;11.59;100.00
53960;BME280;39866;48.638;-2.020;2024-01-06T03:44:20;101076.75;;;11.57;100.00
53960;BME280;39866;48.638;-2.020;2024-01-06T03:46:46;101083.41;;;11.73;100.00
53960;BME280;39866;48.638;-2.020;2024-01-06T03:49:11;101085.28;;;11.70;100.00
53960;BME280;39866;48.638;-2.020;2024-01-06T03:51:36;101091.34;;;11.75;100.00
53960;BME280;39866;48.638;-2.020;2024-01-06T03:54:02;101086.88;;;11.44;100.00
53960;BME280;39866;48.638;-2.020;2024-01-06T03:56:27;101097.31;;;11.19;100.00
53960;BME280;39866;48.638;-2.020;2024-01-06T03:58:52;101085.88;;;11.14;100.00
53960;BME280;39866;48.638;-2.020;2024-01-06T04:01:18;101091.84;;;11.24;100.00
53960;BME280;39866;48.638;-2.020;2024-01-06T04:03:43;101093.28;;;11.01;100.00
53960;BME280;39866;48.638;-2.020;2024-01-06T04:06:09;101089.00;;;10.96;100.00
53960;BME280;39866;48.638;-2.020;2024-01-06T04:08:35;101095.84;;;10.69;100.00
53960;BME280;39866;48.638;-2.020;2024-01-06T04:11:01;101091.56;;;10.63;100.00
53960;BME280;39866;48.638;-2.020;2024-01-06T04:13:26;101093.09;;;10.73;100.00
53960;BME280;39866;48.638;-2.020;2024-01-06T04:15:52;101096.59;;;10.75;100.00
53960;BME280;39866;48.638;-2.020;2024-01-06T04:18:17;101098.53;;;10.69;100.00
53960;BME280;39866;48.638;-2.020;2024-01-06T04:20:43;101092.38;;;10.66;100.00
53960;BME280;39866;48.638;-2.020;2024-01-06T04:23:08;101086.19;;;10.66;100.00
53960;BME280;39866;48.638;-2.020;2024-01-06T04:25:34;101106.44;;;10.72;100.00
53960;BME280;39866;48.638;-2.020;2024-01-06T04:27:59;101086.28;;;10.61;100.00
53960;BME280;39866;48.638;-2.020;2024-01-06T04:30:24;101102.25;;;10.61;100.00
53960;BME280;39866;48.638;-2.020;2024-01-06T04:32:51;101101.06;;;10.75;100.00
53960;BME280;39866;48.638;-2.020;2024-01-06T04:35:16;101116.13;;;10.76;100.00
53960;BME280;39866;48.638;-2.020;2024-01-06T04:37:41;101098.06;;;10.88;100.00
53960;BME280;39866;48.638;-2.020;2024-01-06T04:40:07;101108.00;;;10.82;100.00
53960;BME280;39866;48.638;-2.020;2024-01-06T04:42:33;101105.56;;;11.08;100.00
53960;BME280;39866;48.638;-2.020;2024-01-06T04:44:58;101092.88;;;10.82;100.00
53960;BME280;39866;48.638;-2.020;2024-01-06T04:47:24;101103.72;;;10.73;100.00
53960;BME280;39866;48.638;-2.020;2024-01-06T04:49:50;101097.13;;;10.91;100.00
53960;BME280;39866;48.638;-2.020;2024-01-06T04:52:15;101100.59;;;10.95;100.00
53960;BME280;39866;48.638;-2.020;2024-01-06T04:54:40;101110.84;;;11.10;100.00
53960;BME280;39866;48.638;-2.020;2024-01-06T04:57:08;101105.09;;;10.91;100.00
53960;BME280;39866;48.638;-2.020;2024-01-06T04:59:34;101117.56;;;10.89;100.00
53960;BME280;39866;48.638;-2.020;2024-01-06T05:02:00;101105.63;;;11.05;100.00
53960;BME280;39866;48.638;-2.020;2024-01-06T05:04:25;101118.34;;;10.94;100.00
53960;BME280;39866;48.638;-2.020;2024-01-06T05:06:53;101113.03;;;10.94;100.00
53960;BME280;39866;48.638;-2.020;2024-01-06T05:09:20;101132.16;;;10.73;100.00
53960;BME280;39866;48.638;-2.020;2024-01-06T05:11:48;101130.25;;;10.79;100.00
53960;BME280;39866;48.638;-2.020;2024-01-06T05:14:13;101127.00;;;11.04;100.00
53960;BME280;39866;48.638;-2.020;2024-01-06T05:16:39;101127.41;;;10.85;100.00
53960;BME280;39866;48.638;-2.020;2024-01-06T05:19:04;101132.84;;;10.82;100.00
53960;BME280;39866;48.638;-2.020;2024-01-06T05:21:30;101138.16;;;10.82;100.00
53960;BME280;39866;48.638;-2.020;2024-01-06T05:23:55;101142.63;;;10.82;100.00
53960;BME280;39866;48.638;-2.020;2024-01-06T05:26:21;101137.38;;;10.77;100.00
53960;BME280;39866;48.638;-2.020;2024-01-06T05:28:46;101136.41;;;10.81;100.00
53960;BME280;39866;48.638;-2.020;2024-01-06T05:31:11;101139.41;;;11.05;100.00
53960;BME280;39866;48.638;-2.020;2024-01-06T05:33:37;101149.28;;;11.00;100.00
53960;BME280;39866;48.638;-2.020;2024-01-06T05:36:02;101148.50;;;10.96;100.00
53960;BME280;39866;48.638;-2.020;2024-01-06T05:38:28;101147.69;;;10.93;100.00
53960;BME280;39866;48.638;-2.020;2024-01-06T05:40:53;101149.28;;;11.00;100.00
53960;BME280;39866;48.638;-2.020;2024-01-06T05:43:19;101155.91;;;10.83;100.00
53960;BME280;39866;48.638;-2.020;2024-01-06T05:45:44;101157.44;;;11.29;100.00
53960;BME280;39866;48.638;-2.020;2024-01-06T05:48:10;101153.84;;;11.32;100.00
53960;BME280;39866;48.638;-2.020;2024-01-06T05:50:39;101163.16;;;11.14;100.00
53960;BME280;39866;48.638;-2.020;2024-01-06T05:53:06;101159.78;;;11.07;100.00
53960;BME280;39866;48.638;-2.020;2024-01-06T05:55:31;101163.75;;;11.25;100.00
53960;BME280;39866;48.638;-2.020;2024-01-06T05:57:56;101166.66;;;11.16;100.00
53960;BME280;39866;48.638;-2.020;2024-01-06T06:00:22;101169.25;;;11.19;100.00
53960;BME280;39866;48.638;-2.020;2024-01-06T06:02:47;101171.19;;;11.12;100.00
53960;BME280;39866;48.638;-2.020;2024-01-06T06:05:13;101170.38;;;11.09;100.00
53960;BME280;39866;48.638;-2.020;2024-01-06T06:07:38;101181.63;;;11.22;100.00
53960;BME280;39866;48.638;-2.020;2024-01-06T06:10:08;101176.84;;;10.99;100.00
53960;BME280;39866;48.638;-2.020;2024-01-06T06:12:34;101176.28;;;11.22;100.00
53960;BME280;39866;48.638;-2.020;2024-01-06T06:15:00;101172.81;;;11.20;100.00
53960;BME280;39866;48.638;-2.020;2024-01-06T06:17:25;101178.16;;;11.18;100.00
53960;BME280;39866;48.638;-2.020;2024-01-06T06:19:51;101178.25;;;11.15;100.00
53960;BME280;39866;48.638;-2.020;2024-01-06T06:22:16;101183.97;;;11.35;100.00
53960;BME280;39866;48.638;-2.020;2024-01-06T06:24:42;101200.25;;;11.23;100.00
53960;BME280;39866;48.638;-2.020;2024-01-06T06:27:08;101198.59;;;11.19;100.00
53960;BME280;39866;48.638;-2.020;2024-01-06T06:29:33;101193.50;;;11.08;100.00
53960;BME280;39866;48.638;-2.020;2024-01-06T06:31:59;101203.91;;;11.19;100.00
53960;BME280;39866;48.638;-2.020;2024-01-06T06:34:24;101195.94;;;11.18;100.00
53960;BME280;39866;48.638;-2.020;2024-01-06T06:36:50;101213.41;;;11.31;100.00
53960;BME280;39866;48.638;-2.020;2024-01-06T06:39:15;101234.06;;;11.21;100.00
53960;BME280;39866;48.638;-2.020;2024-01-06T06:41:41;101207.28;;;10.47;100.00
53960;BME280;39866;48.638;-2.020;2024-01-06T06:44:06;101226.13;;;10.36;100.00
53960;BME280;39866;48.638;-2.020;2024-01-06T06:46:31;101213.94;;;10.23;100.00
53960;BME280;39866;48.638;-2.020;2024-01-06T06:48:57;101224.34;;;10.36;100.00
53960;BME280;39866;48.638;-2.020;2024-01-06T06:51:22;101235.00;;;10.80;100.00
53960;BME280;39866;48.638;-2.020;2024-01-06T06:53:50;101224.38;;;10.78;100.00
53960;BME280;39866;48.638;-2.020;2024-01-06T06:56:15;101218.91;;;10.84;100.00
53960;BME280;39866;48.638;-2.020;2024-01-06T06:58:42;101239.19;;;10.91;100.00
53960;BME280;39866;48.638;-2.020;2024-01-06T07:01:07;101239.88;;;11.00;100.00
53960;BME280;39866;48.638;-2.020;2024-01-06T07:03:33;101248.13;;;11.26;100.00
53960;BME280;39866;48.638;-2.020;2024-01-06T07:05:58;101257.78;;;10.93;100.00
53960;BME280;39866;48.638;-2.020;2024-01-06T07:08:23;101250.94;;;10.81;100.00
53960;BME280;39866;48.638;-2.020;2024-01-06T07:10:49;101255.38;;;10.81;100.00
53960;BME280;39866;48.638;-2.020;2024-01-06T07:13:14;101260.31;;;10.99;100.00
53960;BME280;39866;48.638;-2.020;2024-01-06T07:15:39;101256.09;;;10.90;100.00
53960;BME280;39866;48.638;-2.020;2024-01-06T07:18:06;101267.34;;;11.03;100.00
53960;BME280;39866;48.638;-2.020;2024-01-06T07:20:32;101291.59;;;10.89;100.00
53960;BME280;39866;48.638;-2.020;2024-01-06T07:22:57;101270.16;;;10.96;100.00
53960;BME280;39866;48.638;-2.020;2024-01-06T07:25:22;101278.00;;;11.03;100.00
53960;BME280;39866;48.638;-2.020;2024-01-06T07:27:48;101282.03;;;11.21;100.00
53960;BME280;39866;48.638;-2.020;2024-01-06T07:30:16;101289.19;;;11.19;100.00
53960;BME280;39866;48.638;-2.020;2024-01-06T07:32:41;101297.09;;;11.22;100.00
53960;BME280;39866;48.638;-2.020;2024-01-06T07:35:07;101309.38;;;10.89;100.00
53960;BME280;39866;48.638;-2.020;2024-01-06T07:37:33;101300.03;;;11.10;100.00
53960;BME280;39866;48.638;-2.020;2024-01-06T07:39:58;101304.16;;;11.25;100.00
53960;BME280;39866;48.638;-2.020;2024-01-06T07:42:24;101297.19;;;11.19;100.00
53960;BME280;39866;48.638;-2.020;2024-01-06T07:44:52;101299.72;;;11.25;100.00
53960;BME280;39866;48.638;-2.020;2024-01-06T07:47:17;101317.09;;;11.43;100.00
53960;BME280;39866;48.638;-2.020;2024-01-06T07:49:42;101319.13;;;11.30;100.00
53960;BME280;39866;48.638;-2.020;2024-01-06T07:52:08;101320.97;;;11.28;100.00
53960;BME280;39866;48.638;-2.020;2024-01-06T07:54:33;101322.50;;;11.40;100.00
53960;BME280;39866;48.638;-2.020;2024-01-06T07:56:58;101324.34;;;11.36;100.00
53960;BME280;39866;48.638;-2.020;2024-01-06T07:59:24;101331.97;;;11.13;100.00
53960;BME280;39866;48.638;-2.020;2024-01-06T08:01:49;101339.75;;;11.24;100.00
53960;BME280;39866;48.638;-2.020;2024-01-06T08:04:15;101349.38;;;11.29;100.00
53960;BME280;39866;48.638;-2.020;2024-01-06T08:06:40;101335.13;;;11.30;100.00
53960;BME280;39866;48.638;-2.020;2024-01-06T08:09:05;101340.88;;;11.52;100.00
53960;BME280;39866;48.638;-2.020;2024-01-06T08:11:31;101349.59;;;11.20;100.00
53960;BME280;39866;48.638;-2.020;2024-01-06T08:13:56;101346.72;;;11.29;100.00
53960;BME280;39866;48.638;-2.020;2024-01-06T08:16:21;101348.66;;;11.23;100.00
53960;BME280;39866;48.638;-2.020;2024-01-06T08:18:47;101369.88;;;11.26;100.00
53960;BME280;39866;48.638;-2.020;2024-01-06T08:21:12;101366.59;;;11.13;100.00
53960;BME280;39866;48.638;-2.020;2024-01-06T08:23:38;101380.00;;;11.10;100.00
53960;BME280;39866;48.638;-2.020;2024-01-06T08:26:04;101386.41;;;10.55;100.00
53960;BME280;39866;48.638;-2.020;2024-01-06T08:28:30;101395.19;;;10.06;100.00
53960;BME280;39866;48.638;-2.020;2024-01-06T08:30:55;101396.19;;;9.99;100.00
53960;BME280;39866;48.638;-2.020;2024-01-06T08:33:21;101400.19;;;10.24;100.00
53960;BME280;39866;48.638;-2.020;2024-01-06T08:35:46;101418.97;;;10.16;100.00
53960;BME280;39866;48.638;-2.020;2024-01-06T08:38:12;101420.81;;;10.13;100.00
53960;BME280;39866;48.638;-2.020;2024-01-06T08:40:37;101422.91;;;10.48;100.00
53960;BME280;39866;48.638;-2.020;2024-01-06T08:43:03;101418.34;;;10.55;100.00
53960;BME280;39866;48.638;-2.020;2024-01-06T08:45:28;101428.84;;;10.64;100.00
53960;BME280;39866;48.638;-2.020;2024-01-06T08:47:54;101428.78;;;10.67;100.00
53960;BME280;39866;48.638;-2.020;2024-01-06T08:50:19;101438.06;;;10.93;100.00
53960;BME280;39866;48.638;-2.020;2024-01-06T08:52:44;101439.09;;;10.85;100.00
53960;BME280;39866;48.638;-2.020;2024-01-06T08:55:10;101435.31;;;10.99;100.00
53960;BME280;39866;48.638;-2.020;2024-01-06T08:57:35;101429.00;;;11.03;100.00
53960;BME280;39866;48.638;-2.020;2024-01-06T09:00:02;101437.00;;;11.03;100.00
53960;BME280;39866;48.638;-2.020;2024-01-06T09:02:28;101445.66;;;11.14;100.00
53960;BME280;39866;48.638;-2.020;2024-01-06T09:04:53;101449.84;;;11.27;100.00
53960;BME280;39866;48.638;-2.020;2024-01-06T09:07:19;101445.50;;;11.22;100.00
53960;BME280;39866;48.638;-2.020;2024-01-06T09:09:44;101460.84;;;11.09;100.00
53960;BME280;39866;48.638;-2.020;2024-01-06T09:12:09;101446.34;;;11.24;100.00
53960;BME280;39866;48.638;-2.020;2024-01-06T09:14:35;101459.78;;;11.19;100.00
53960;BME280;39866;48.638;-2.020;2024-01-06T09:17:03;101460.41;;;11.30;100.00
53960;BME280;39866;48.638;-2.020;2024-01-06T09:19:29;101451.78;;;11.18;100.00
53960;BME280;39866;48.638;-2.020;2024-01-06T09:21:56;101467.06;;;11.09;100.00
53960;BME280;39866;48.638;-2.020;2024-01-06T09:24:21;101458.13;;;11.12;100.00
53960;BME280;39866;48.638;-2.020;2024-01-06T09:26:46;101470.31;;;11.25;100.00
53960;BME280;39866;48.638;-2.020;2024-01-06T09:29:12;101467.78;;;11.18;100.00
53960;BME280;39866;48.638;-2.020;2024-01-06T09:31:38;101467.63;;;11.25;100.00
53960;BME280;39866;48.638;-2.020;2024-01-06T09:34:03;101482.81;;;11.23;100.00
53960;BME280;39866;48.638;-2.020;2024-01-06T09:36:30;101484.31;;;11.36;100.00
53960;BME280;39866;48.638;-2.020;2024-01-06T09:38:56;101473.59;;;11.39;100.00
53960;BME280;39866;48.638;-2.020;2024-01-06T09:41:21;101481.44;;;11.46;100.00
53960;BME280;39866;48.638;-2.020;2024-01-06T09:43:47;101488.72;;;11.37;100.00
53960;BME280;39866;48.638;-2.020;2024-01-06T09:46:23;101501.47;;;11.23;100.00
53960;BME280;39866;48.638;-2.020;2024-01-06T09:48:51;101497.06;;;11.21;100.00
53960;BME280;39866;48.638;-2.020;2024-01-06T09:51:18;101490.13;;;11.12;100.00
53960;BME280;39866;48.638;-2.020;2024-01-06T09:54:04;101488.13;;;11.23;100.00
53960;BME280;39866;48.638;-2.020;2024-01-06T09:56:33;101495.50;;;11.10;100.00
53960;BME280;39866;48.638;-2.020;2024-01-06T09:58:59;101495.25;;;11.21;100.00
53960;BME280;39866;48.638;-2.020;2024-01-06T10:01:24;101501.59;;;11.15;100.00
53960;BME280;39866;48.638;-2.020;2024-01-06T10:03:50;101512.94;;;11.25;100.00
53960;BME280;39866;48.638;-2.020;2024-01-06T10:06:16;101504.34;;;11.11;100.00
53960;BME280;39866;48.638;-2.020;2024-01-06T10:08:42;101516.19;;;10.95;100.00
53960;BME280;39866;48.638;-2.020;2024-01-06T10:11:08;101517.28;;;11.32;100.00
53960;BME280;39866;48.638;-2.020;2024-01-06T10:13:34;101515.81;;;11.16;100.00
53960;BME280;39866;48.638;-2.020;2024-01-06T10:16:00;101505.75;;;11.30;100.00
53960;BME280;39866;48.638;-2.020;2024-01-06T10:18:27;101524.31;;;11.36;100.00
53960;BME280;39866;48.638;-2.020;2024-01-06T10:20:54;101520.13;;;11.22;100.00
53960;BME280;39866;48.638;-2.020;2024-01-06T10:23:22;101523.81;;;11.16;100.00
53960;BME280;39866;48.638;-2.020;2024-01-06T10:25:51;101517.53;;;11.19;100.00
53960;BME280;39866;48.638;-2.020;2024-01-06T10:28:17;101520.13;;;11.22;100.00
53960;BME280;39866;48.638;-2.020;2024-01-06T10:30:42;101528.06;;;11.25;100.00
53960;BME280;39866;48.638;-2.020;2024-01-06T10:33:11;101535.28;;;11.18;100.00
53960;BME280;39866;48.638;-2.020;2024-01-06T10:35:39;101533.31;;;11.29;100.00
53960;BME280;39866;48.638;-2.020;2024-01-06T10:38:04;101526.56;;;11.11;100.00
53960;BME280;39866;48.638;-2.020;2024-01-06T10:40:30;101546.69;;;11.26;100.00
53960;BME280;39866;48.638;-2.020;2024-01-06T10:42:55;101544.75;;;11.36;100.00
53960;BME280;39866;48.638;-2.020;2024-01-06T10:45:23;101530.78;;;11.22;100.00
53960;BME280;39866;48.638;-2.020;2024-01-06T10:47:49;101536.84;;;11.30;100.00
53960;BME280;39866;48.638;-2.020;2024-01-06T10:50:17;101547.38;;;11.37;100.00
53960;BME280;39866;48.638;-2.020;2024-01-06T10:52:43;101544.66;;;11.40;100.00
53960;BME280;39866;48.638;-2.020;2024-01-06T10:55:09;101535.78;;;11.38;100.00
53960;BME280;39866;48.638;-2.020;2024-01-06T10:57:37;101545.22;;;11.11;100.00
53960;BME280;39866;48.638;-2.020;2024-01-06T11:00:03;101545.22;;;11.11;100.00
53960;BME280;39866;48.638;-2.020;2024-01-06T11:02:31;101548.94;;;11.49;100.00
53960;BME280;39866;48.638;-2.020;2024-01-06T11:04:57;101544.91;;;11.28;100.00
53960;BME280;39866;48.638;-2.020;2024-01-06T11:07:24;101544.47;;;11.50;100.00
53960;BME280;39866;48.638;-2.020;2024-01-06T11:09:55;101550.78;;;11.46;100.00
53960;BME280;39866;48.638;-2.020;2024-01-06T11:12:24;101555.31;;;11.40;100.00
53960;BME280;39866;48.638;-2.020;2024-01-06T11:14:51;101548.38;;;11.32;100.00
53960;BME280;39866;48.638;-2.020;2024-01-06T11:17:54;101553.81;;;11.27;100.00
53960;BME280;39866;48.638;-2.020;2024-01-06T11:20:23;101541.63;;;11.12;100.00
53960;BME280;39866;48.638;-2.020;2024-01-06T11:22:49;101561.44;;;11.46;100.00
53960;BME280;39866;48.638;-2.020;2024-01-06T11:25:19;101560.00;;;11.28;100.00
53960;BME280;39866;48.638;-2.020;2024-01-06T11:27:49;101564.16;;;11.44;100.00
53960;BME280;39866;48.638;-2.020;2024-01-06T11:30:22;101551.75;;;11.41;100.00
53960;BME280;39866;48.638;-2.020;2024-01-06T11:32:48;101571.19;;;11.48;100.00
53960;BME280;39866;48.638;-2.020;2024-01-06T11:35:17;101577.66;;;11.33;100.00
53960;BME280;39866;48.638;-2.020;2024-01-06T11:42:47;101569.72;;;11.32;100.00
53960;BME280;39866;48.638;-2.020;2024-01-06T11:45:14;101578.81;;;11.20;100.00
53960;BME280;39866;48.638;-2.020;2024-01-06T11:47:39;101570.53;;;11.35;100.00
53960;BME280;39866;48.638;-2.020;2024-01-06T11:50:06;101565.84;;;11.47;100.00
53960;BME280;39866;48.638;-2.020;2024-01-06T11:52:32;101566.31;;;11.22;100.00
53960;BME280;39866;48.638;-2.020;2024-01-06T11:54:58;101555.59;;;11.25;100.00
53960;BME280;39866;48.638;-2.020;2024-01-06T11:57:28;101576.94;;;11.25;100.00
53960;BME280;39866;48.638;-2.020;2024-01-06T11:59:54;101565.81;;;11.50;100.00
53960;BME280;39866;48.638;-2.020;2024-01-06T12:02:20;101553.81;;;11.26;100.00
53960;BME280;39866;48.638;-2.020;2024-01-06T12:04:49;101557.41;;;11.25;100.00
53960;BME280;39866;48.638;-2.020;2024-01-06T12:07:15;101551.19;;;11.24;100.00
53960;BME280;39866;48.638;-2.020;2024-01-06T12:09:40;101562.72;;;11.25;100.00
53960;BME280;39866;48.638;-2.020;2024-01-06T12:12:06;101546.53;;;11.35;100.00
53960;BME280;39866;48.638;-2.020;2024-01-06T12:14:36;101557.06;;;11.41;100.00
53960;BME280;39866;48.638;-2.020;2024-01-06T12:17:01;101543.53;;;11.52;100.00
53960;BME280;39866;48.638;-2.020;2024-01-06T12:19:31;101553.69;;;11.33;100.00
53960;BME280;39866;48.638;-2.020;2024-01-06T12:21:56;101567.75;;;11.41;100.00
53960;BME280;39866;48.638;-2.020;2024-01-06T12:24:22;101558.09;;;11.36;100.00
53960;BME280;39866;48.638;-2.020;2024-01-06T12:26:48;101548.88;;;11.51;100.00
53960;BME280;39866;48.638;-2.020;2024-01-06T12:29:14;101558.22;;;11.28;100.00